Current Weather

Abu Dhabi Intl

Abu Dhabi Intl, United Arab Emirates (OMAA)

Report from: Tuesday, August 16, 2022 7:00 AM UTC
Current time: Tuesday, August 16, 2022 7:13 AM UTC

Nearby weather
Weather history
Weather forecast

Temperature42.0°C (107.6°F)
Heat index40.2°C (104.3°F)
Dew point9.0°C (48.2°F)
Winds 3 kts (1.5 m/s, 3.5 mph) Vrb
Winds variableWinds variable from Southeast (140°) to North-Northwest (340°)
Clouds Sky clear
Altimeter29.47 in.Hg (998 mB)
Relative humidity14 %
Density altitude3,696 ft. (1,127 m)
Remarks Ceiling and visibility OK
Flight conditions Visual Meteorological Conditions
Raw dataOMAA 160700Z 05003KT 340V140 CAVOK 42/09 Q0998 BECMG 32010KT
An error has occurred. This application may no longer respond until reloaded. Reload 🗙